sensor_id;sensor_type;location;lat;lon;timestamp;P1;durP1;ratioP1;P2;durP2;ratioP2
43088;SDS011;28709;52.030;5.652;2023-01-19T00:01:54;19.73;;;8.82;;
43088;SDS011;28709;52.030;5.652;2023-01-19T00:04:20;15.30;;;8.35;;
43088;SDS011;28709;52.030;5.652;2023-01-19T00:06:45;13.90;;;8.60;;
43088;SDS011;28709;52.030;5.652;2023-01-19T00:09:11;18.48;;;8.25;;
43088;SDS011;28709;52.030;5.652;2023-01-19T00:11:37;18.48;;;9.18;;
43088;SDS011;28709;52.030;5.652;2023-01-19T00:14:02;15.50;;;9.25;;
43088;SDS011;28709;52.030;5.652;2023-01-19T00:16:28;26.05;;;9.32;;
43088;SDS011;28709;52.030;5.652;2023-01-19T00:18:54;21.02;;;8.88;;
43088;SDS011;28709;52.030;5.652;2023-01-19T00:21:20;14.02;;;9.52;;
43088;SDS011;28709;52.030;5.652;2023-01-19T00:23:46;16.55;;;9.05;;
43088;SDS011;28709;52.030;5.652;2023-01-19T00:26:13;17.75;;;9.20;;
43088;SDS011;28709;52.030;5.652;2023-01-19T00:28:40;15.45;;;8.77;;
43088;SDS011;28709;52.030;5.652;2023-01-19T00:31:07;19.08;;;9.48;;
43088;SDS011;28709;52.030;5.652;2023-01-19T00:33:33;21.92;;;10.52;;
43088;SDS011;28709;52.030;5.652;2023-01-19T00:35:58;21.33;;;9.93;;
43088;SDS011;28709;52.030;5.652;2023-01-19T00:38:24;20.88;;;9.25;;
43088;SDS011;28709;52.030;5.652;2023-01-19T00:40:49;14.50;;;8.65;;
43088;SDS011;28709;52.030;5.652;2023-01-19T00:43:15;15.10;;;8.85;;
43088;SDS011;28709;52.030;5.652;2023-01-19T00:45:41;14.98;;;8.70;;
43088;SDS011;28709;52.030;5.652;2023-01-19T00:48:06;18.73;;;8.68;;
43088;SDS011;28709;52.030;5.652;2023-01-19T00:50:32;19.00;;;10.07;;
43088;SDS011;28709;52.030;5.652;2023-01-19T00:52:59;19.40;;;9.68;;
43088;SDS011;28709;52.030;5.652;2023-01-19T00:55:25;19.10;;;9.20;;
43088;SDS011;28709;52.030;5.652;2023-01-19T00:57:54;15.15;;;8.35;;
43088;SDS011;28709;52.030;5.652;2023-01-19T01:00:21;21.77;;;10.25;;
43088;SDS011;28709;52.030;5.652;2023-01-19T01:02:48;17.08;;;8.68;;
43088;SDS011;28709;52.030;5.652;2023-01-19T01:05:15;18.13;;;8.63;;
43088;SDS011;28709;52.030;5.652;2023-01-19T01:07:42;22.77;;;8.70;;
43088;SDS011;28709;52.030;5.652;2023-01-19T01:10:14;16.92;;;8.80;;
43088;SDS011;28709;52.030;5.652;2023-01-19T01:12:43;16.20;;;8.90;;
43088;SDS011;28709;52.030;5.652;2023-01-19T01:15:12;16.70;;;8.48;;
43088;SDS011;28709;52.030;5.652;2023-01-19T01:17:39;13.38;;;8.57;;
43088;SDS011;28709;52.030;5.652;2023-01-19T01:20:12;15.50;;;7.72;;
43088;SDS011;28709;52.030;5.652;2023-01-19T01:22:43;16.27;;;8.05;;
43088;SDS011;28709;52.030;5.652;2023-01-19T01:25:11;17.77;;;7.90;;
43088;SDS011;28709;52.030;5.652;2023-01-19T01:27:41;20.85;;;9.20;;
43088;SDS011;28709;52.030;5.652;2023-01-19T01:30:08;18.13;;;7.82;;
43088;SDS011;28709;52.030;5.652;2023-01-19T01:32:35;18.13;;;7.25;;
43088;SDS011;28709;52.030;5.652;2023-01-19T01:35:01;13.00;;;5.75;;
43088;SDS011;28709;52.030;5.652;2023-01-19T01:37:28;10.43;;;5.78;;
43088;SDS011;28709;52.030;5.652;2023-01-19T01:39:53;14.82;;;5.93;;
43088;SDS011;28709;52.030;5.652;2023-01-19T01:42:23;15.85;;;6.65;;
43088;SDS011;28709;52.030;5.652;2023-01-19T01:44:52;12.40;;;6.75;;
43088;SDS011;28709;52.030;5.652;2023-01-19T01:47:30;14.20;;;6.97;;
43088;SDS011;28709;52.030;5.652;2023-01-19T01:49:59;10.85;;;6.18;;
43088;SDS011;28709;52.030;5.652;2023-01-19T01:52:28;9.73;;;5.85;;
43088;SDS011;28709;52.030;5.652;2023-01-19T01:54:58;14.50;;;5.95;;
43088;SDS011;28709;52.030;5.652;2023-01-19T01:57:26;12.20;;;5.93;;
43088;SDS011;28709;52.030;5.652;2023-01-19T01:59:52;11.00;;;5.95;;
43088;SDS011;28709;52.030;5.652;2023-01-19T02:02:22;10.75;;;6.40;;
43088;SDS011;28709;52.030;5.652;2023-01-19T02:05:12;6.88;;;5.35;;
43088;SDS011;28709;52.030;5.652;2023-01-19T02:07:49;8.88;;;5.47;;
43088;SDS011;28709;52.030;5.652;2023-01-19T02:10:54;8.00;;;4.72;;
43088;SDS011;28709;52.030;5.652;2023-01-19T02:13:39;12.55;;;6.85;;
43088;SDS011;28709;52.030;5.652;2023-01-19T02:16:08;8.73;;;5.65;;
43088;SDS011;28709;52.030;5.652;2023-01-19T02:18:35;8.88;;;5.45;;
43088;SDS011;28709;52.030;5.652;2023-01-19T02:26:05;10.40;;;6.47;;
43088;SDS011;28709;52.030;5.652;2023-01-19T02:28:33;9.45;;;6.10;;
43088;SDS011;28709;52.030;5.652;2023-01-19T02:31:01;8.70;;;5.63;;
43088;SDS011;28709;52.030;5.652;2023-01-19T02:33:27;8.07;;;5.47;;
43088;SDS011;28709;52.030;5.652;2023-01-19T02:35:53;10.90;;;5.55;;
43088;SDS011;28709;52.030;5.652;2023-01-19T02:38:20;9.38;;;5.57;;
43088;SDS011;28709;52.030;5.652;2023-01-19T02:40:50;10.27;;;6.22;;
43088;SDS011;28709;52.030;5.652;2023-01-19T02:43:17;8.40;;;5.85;;
43088;SDS011;28709;52.030;5.652;2023-01-19T02:45:44;11.68;;;5.40;;
43088;SDS011;28709;52.030;5.652;2023-01-19T02:48:10;9.30;;;5.28;;
43088;SDS011;28709;52.030;5.652;2023-01-19T02:50:45;10.48;;;5.78;;
43088;SDS011;28709;52.030;5.652;2023-01-19T02:58:56;5.32;;;3.22;;
43088;SDS011;28709;52.030;5.652;2023-01-19T03:06:51;6.30;;;2.90;;
43088;SDS011;28709;52.030;5.652;2023-01-19T03:15:01;4.18;;;1.73;;
43088;SDS011;28709;52.030;5.652;2023-01-19T03:17:51;3.08;;;1.48;;
43088;SDS011;28709;52.030;5.652;2023-01-19T03:20:20;5.20;;;0.85;;
43088;SDS011;28709;52.030;5.652;2023-01-19T03:22:51;2.83;;;0.75;;
43088;SDS011;28709;52.030;5.652;2023-01-19T03:25:25;4.82;;;0.47;;
43088;SDS011;28709;52.030;5.652;2023-01-19T03:27:55;4.60;;;0.70;;
43088;SDS011;28709;52.030;5.652;2023-01-19T03:30:23;1.88;;;0.50;;
43088;SDS011;28709;52.030;5.652;2023-01-19T03:32:54;5.35;;;0.55;;
43088;SDS011;28709;52.030;5.652;2023-01-19T03:35:23;8.82;;;1.85;;
43088;SDS011;28709;52.030;5.652;2023-01-19T03:37:53;5.35;;;1.10;;
43088;SDS011;28709;52.030;5.652;2023-01-19T03:40:22;5.88;;;0.75;;
43088;SDS011;28709;52.030;5.652;2023-01-19T03:42:53;4.05;;;0.95;;
43088;SDS011;28709;52.030;5.652;2023-01-19T03:45:19;2.60;;;0.98;;
43088;SDS011;28709;52.030;5.652;2023-01-19T03:47:46;4.28;;;0.70;;
43088;SDS011;28709;52.030;5.652;2023-01-19T03:50:13;1.02;;;0.28;;
43088;SDS011;28709;52.030;5.652;2023-01-19T03:52:58;3.70;;;0.35;;
43088;SDS011;28709;52.030;5.652;2023-01-19T03:55:45;2.30;;;0.35;;
43088;SDS011;28709;52.030;5.652;2023-01-19T03:58:12;9.23;;;1.35;;
43088;SDS011;28709;52.030;5.652;2023-01-19T04:00:38;1.55;;;0.32;;
43088;SDS011;28709;52.030;5.652;2023-01-19T04:03:04;1.90;;;0.52;;
43088;SDS011;28709;52.030;5.652;2023-01-19T04:05:31;1.73;;;0.55;;
43088;SDS011;28709;52.030;5.652;2023-01-19T04:07:57;2.65;;;0.50;;
43088;SDS011;28709;52.030;5.652;2023-01-19T04:10:23;1.85;;;0.25;;
43088;SDS011;28709;52.030;5.652;2023-01-19T04:12:49;3.10;;;0.47;;
43088;SDS011;28709;52.030;5.652;2023-01-19T04:15:20;3.25;;;0.30;;
43088;SDS011;28709;52.030;5.652;2023-01-19T04:17:46;0.80;;;0.28;;
43088;SDS011;28709;52.030;5.652;2023-01-19T04:20:12;1.65;;;0.57;;
43088;SDS011;28709;52.030;5.652;2023-01-19T04:22:38;1.55;;;0.32;;
43088;SDS011;28709;52.030;5.652;2023-01-19T04:25:04;3.60;;;0.63;;
43088;SDS011;28709;52.030;5.652;2023-01-19T04:27:30;1.50;;;0.22;;
43088;SDS011;28709;52.030;5.652;2023-01-19T04:29:56;7.80;;;1.83;;
43088;SDS011;28709;52.030;5.652;2023-01-19T04:32:22;1.58;;;0.47;;
43088;SDS011;28709;52.030;5.652;2023-01-19T04:34:47;0.85;;;0.30;;
43088;SDS011;28709;52.030;5.652;2023-01-19T04:37:13;0.40;;;0.40;;
43088;SDS011;28709;52.030;5.652;2023-01-19T04:39:39;1.10;;;0.22;;
43088;SDS011;28709;52.030;5.652;2023-01-19T04:42:04;1.15;;;0.30;;
43088;SDS011;28709;52.030;5.652;2023-01-19T04:44:30;6.45;;;0.90;;
43088;SDS011;28709;52.030;5.652;2023-01-19T04:46:56;2.80;;;0.55;;
43088;SDS011;28709;52.030;5.652;2023-01-19T04:49:22;2.50;;;0.50;;
43088;SDS011;28709;52.030;5.652;2023-01-19T04:51:48;1.50;;;0.47;;
43088;SDS011;28709;52.030;5.652;2023-01-19T04:54:13;2.50;;;0.60;;
43088;SDS011;28709;52.030;5.652;2023-01-19T04:56:39;2.90;;;0.98;;
43088;SDS011;28709;52.030;5.652;2023-01-19T04:59:05;1.58;;;0.90;;
43088;SDS011;28709;52.030;5.652;2023-01-19T05:01:30;4.40;;;1.10;;
43088;SDS011;28709;52.030;5.652;2023-01-19T05:03:59;4.88;;;1.15;;
43088;SDS011;28709;52.030;5.652;2023-01-19T05:06:27;5.68;;;1.60;;
43088;SDS011;28709;52.030;5.652;2023-01-19T05:08:53;5.78;;;1.70;;
43088;SDS011;28709;52.030;5.652;2023-01-19T05:11:18;2.33;;;1.40;;
43088;SDS011;28709;52.030;5.652;2023-01-19T05:13:44;3.22;;;1.52;;
43088;SDS011;28709;52.030;5.652;2023-01-19T05:16:10;3.35;;;1.35;;
43088;SDS011;28709;52.030;5.652;2023-01-19T05:18:35;9.20;;;1.77;;
43088;SDS011;28709;52.030;5.652;2023-01-19T05:21:02;3.47;;;1.00;;
43088;SDS011;28709;52.030;5.652;2023-01-19T05:23:28;8.32;;;1.80;;
43088;SDS011;28709;52.030;5.652;2023-01-19T05:25:55;5.20;;;1.35;;
43088;SDS011;28709;52.030;5.652;2023-01-19T05:28:21;1.83;;;0.98;;
43088;SDS011;28709;52.030;5.652;2023-01-19T05:30:50;4.55;;;1.23;;
43088;SDS011;28709;52.030;5.652;2023-01-19T05:33:15;4.28;;;1.40;;
43088;SDS011;28709;52.030;5.652;2023-01-19T05:35:41;4.88;;;1.80;;
43088;SDS011;28709;52.030;5.652;2023-01-19T05:38:07;2.67;;;0.70;;
43088;SDS011;28709;52.030;5.652;2023-01-19T05:40:33;9.02;;;2.10;;
43088;SDS011;28709;52.030;5.652;2023-01-19T05:42:58;8.18;;;0.80;;
43088;SDS011;28709;52.030;5.652;2023-01-19T05:45:26;8.35;;;1.38;;
43088;SDS011;28709;52.030;5.652;2023-01-19T05:47:55;8.85;;;1.60;;
43088;SDS011;28709;52.030;5.652;2023-01-19T05:50:21;8.05;;;1.00;;
43088;SDS011;28709;52.030;5.652;2023-01-19T05:52:46;5.10;;;1.05;;
43088;SDS011;28709;52.030;5.652;2023-01-19T05:55:12;10.20;;;1.13;;
43088;SDS011;28709;52.030;5.652;2023-01-19T05:57:39;8.13;;;1.38;;
43088;SDS011;28709;52.030;5.652;2023-01-19T06:00:05;5.68;;;1.50;;
43088;SDS011;28709;52.030;5.652;2023-01-19T06:02:31;3.95;;;1.15;;
43088;SDS011;28709;52.030;5.652;2023-01-19T06:04:56;5.70;;;1.25;;
43088;SDS011;28709;52.030;5.652;2023-01-19T06:07:22;9.35;;;1.90;;
43088;SDS011;28709;52.030;5.652;2023-01-19T06:09:48;16.48;;;1.83;;
43088;SDS011;28709;52.030;5.652;2023-01-19T06:12:14;9.25;;;1.63;;
43088;SDS011;28709;52.030;5.652;2023-01-19T06:14:39;9.63;;;1.20;;
43088;SDS011;28709;52.030;5.652;2023-01-19T06:17:05;8.80;;;1.98;;
43088;SDS011;28709;52.030;5.652;2023-01-19T06:19:31;10.25;;;1.20;;
43088;SDS011;28709;52.030;5.652;2023-01-19T06:21:58;11.70;;;1.75;;
43088;SDS011;28709;52.030;5.652;2023-01-19T06:24:24;6.13;;;1.40;;
43088;SDS011;28709;52.030;5.652;2023-01-19T06:26:50;14.13;;;2.55;;
43088;SDS011;28709;52.030;5.652;2023-01-19T06:29:16;16.20;;;3.58;;
43088;SDS011;28709;52.030;5.652;2023-01-19T06:31:42;8.80;;;2.05;;
43088;SDS011;28709;52.030;5.652;2023-01-19T06:34:08;4.90;;;1.67;;
43088;SDS011;28709;52.030;5.652;2023-01-19T06:36:34;6.13;;;1.55;;
43088;SDS011;28709;52.030;5.652;2023-01-19T06:39:00;15.57;;;2.00;;
43088;SDS011;28709;52.030;5.652;2023-01-19T06:41:31;7.57;;;1.73;;
43088;SDS011;28709;52.030;5.652;2023-01-19T06:43:57;8.82;;;1.50;;
43088;SDS011;28709;52.030;5.652;2023-01-19T06:46:23;8.00;;;2.67;;
43088;SDS011;28709;52.030;5.652;2023-01-19T06:48:50;21.20;;;2.35;;
43088;SDS011;28709;52.030;5.652;2023-01-19T06:51:15;10.40;;;2.75;;
43088;SDS011;28709;52.030;5.652;2023-01-19T06:53:41;18.55;;;3.20;;
43088;SDS011;28709;52.030;5.652;2023-01-19T06:56:07;14.00;;;3.03;;
43088;SDS011;28709;52.030;5.652;2023-01-19T06:58:33;17.23;;;2.15;;
43088;SDS011;28709;52.030;5.652;2023-01-19T07:01:03;16.08;;;2.92;;
43088;SDS011;28709;52.030;5.652;2023-01-19T07:03:30;9.00;;;1.67;;
43088;SDS011;28709;52.030;5.652;2023-01-19T07:05:56;11.40;;;1.55;;
43088;SDS011;28709;52.030;5.652;2023-01-19T07:08:22;17.10;;;1.80;;
43088;SDS011;28709;52.030;5.652;2023-01-19T07:10:48;12.60;;;3.40;;
43088;SDS011;28709;52.030;5.652;2023-01-19T07:13:14;7.38;;;1.92;;
43088;SDS011;28709;52.030;5.652;2023-01-19T07:15:40;7.00;;;1.55;;
43088;SDS011;28709;52.030;5.652;2023-01-19T07:18:06;14.20;;;1.67;;
43088;SDS011;28709;52.030;5.652;2023-01-19T07:20:34;11.50;;;1.70;;
43088;SDS011;28709;52.030;5.652;2023-01-19T07:23:01;9.45;;;1.60;;
43088;SDS011;28709;52.030;5.652;2023-01-19T07:25:27;5.85;;;2.28;;
43088;SDS011;28709;52.030;5.652;2023-01-19T07:27:59;6.03;;;1.40;;
43088;SDS011;28709;52.030;5.652;2023-01-19T07:30:25;14.35;;;2.05;;
43088;SDS011;28709;52.030;5.652;2023-01-19T07:32:53;10.65;;;2.17;;
43088;SDS011;28709;52.030;5.652;2023-01-19T07:35:21;10.80;;;2.10;;
43088;SDS011;28709;52.030;5.652;2023-01-19T07:37:46;12.45;;;2.15;;
43088;SDS011;28709;52.030;5.652;2023-01-19T07:40:12;11.63;;;2.20;;
43088;SDS011;28709;52.030;5.652;2023-01-19T07:42:38;9.02;;;1.75;;
43088;SDS011;28709;52.030;5.652;2023-01-19T07:45:04;13.98;;;4.97;;
43088;SDS011;28709;52.030;5.652;2023-01-19T07:47:30;13.60;;;2.40;;
43088;SDS011;28709;52.030;5.652;2023-01-19T07:49:55;12.02;;;2.30;;
43088;SDS011;28709;52.030;5.652;2023-01-19T07:52:21;4.22;;;1.92;;
43088;SDS011;28709;52.030;5.652;2023-01-19T07:54:47;5.13;;;1.88;;
43088;SDS011;28709;52.030;5.652;2023-01-19T07:57:15;13.02;;;2.95;;
43088;SDS011;28709;52.030;5.652;2023-01-19T07:59:41;9.63;;;2.05;;
43088;SDS011;28709;52.030;5.652;2023-01-19T08:02:07;10.05;;;2.40;;
43088;SDS011;28709;52.030;5.652;2023-01-19T08:04:34;7.53;;;1.77;;
43088;SDS011;28709;52.030;5.652;2023-01-19T08:07:00;10.52;;;2.63;;
43088;SDS011;28709;52.030;5.652;2023-01-19T08:09:26;5.80;;;1.60;;
43088;SDS011;28709;52.030;5.652;2023-01-19T08:11:51;9.50;;;2.42;;
43088;SDS011;28709;52.030;5.652;2023-01-19T08:14:17;7.38;;;2.53;;
43088;SDS011;28709;52.030;5.652;2023-01-19T08:16:43;7.95;;;2.30;;
43088;SDS011;28709;52.030;5.652;2023-01-19T08:19:08;5.53;;;2.20;;
43088;SDS011;28709;52.030;5.652;2023-01-19T08:21:34;10.68;;;2.65;;
43088;SDS011;28709;52.030;5.652;2023-01-19T08:24:00;6.93;;;2.00;;
43088;SDS011;28709;52.030;5.652;2023-01-19T08:26:30;12.15;;;3.42;;
43088;SDS011;28709;52.030;5.652;2023-01-19T08:28:59;8.63;;;3.15;;
43088;SDS011;28709;52.030;5.652;2023-01-19T08:31:27;7.40;;;3.20;;
43088;SDS011;28709;52.030;5.652;2023-01-19T08:33:52;8.05;;;2.80;;
43088;SDS011;28709;52.030;5.652;2023-01-19T08:36:19;8.32;;;3.65;;
43088;SDS011;28709;52.030;5.652;2023-01-19T08:38:45;8.10;;;3.10;;
43088;SDS011;28709;52.030;5.652;2023-01-19T08:41:11;10.70;;;3.38;;
43088;SDS011;28709;52.030;5.652;2023-01-19T08:43:38;11.98;;;3.90;;
43088;SDS011;28709;52.030;5.652;2023-01-19T08:46:04;10.65;;;3.47;;
43088;SDS011;28709;52.030;5.652;2023-01-19T08:48:30;11.00;;;4.05;;
43088;SDS011;28709;52.030;5.652;2023-01-19T08:50:56;8.05;;;2.90;;
43088;SDS011;28709;52.030;5.652;2023-01-19T08:53:23;13.60;;;3.35;;
43088;SDS011;28709;52.030;5.652;2023-01-19T08:55:49;7.78;;;2.95;;
43088;SDS011;28709;52.030;5.652;2023-01-19T08:58:18;17.73;;;4.05;;
43088;SDS011;28709;52.030;5.652;2023-01-19T09:00:44;6.55;;;2.50;;
43088;SDS011;28709;52.030;5.652;2023-01-19T09:03:10;9.98;;;2.45;;
43088;SDS011;28709;52.030;5.652;2023-01-19T09:05:37;8.30;;;2.85;;
43088;SDS011;28709;52.030;5.652;2023-01-19T09:08:04;9.63;;;2.47;;
43088;SDS011;28709;52.030;5.652;2023-01-19T09:10:35;12.98;;;3.95;;
43088;SDS011;28709;52.030;5.652;2023-01-19T09:13:02;7.90;;;2.78;;
43088;SDS011;28709;52.030;5.652;2023-01-19T09:15:29;10.38;;;3.25;;
43088;SDS011;28709;52.030;5.652;2023-01-19T09:17:57;11.60;;;3.53;;
43088;SDS011;28709;52.030;5.652;2023-01-19T09:20:23;20.75;;;4.15;;
43088;SDS011;28709;52.030;5.652;2023-01-19T09:22:49;11.60;;;2.85;;
43088;SDS011;28709;52.030;5.652;2023-01-19T09:25:15;11.43;;;3.05;;
43088;SDS011;28709;52.030;5.652;2023-01-19T09:27:40;12.68;;;2.65;;
43088;SDS011;28709;52.030;5.652;2023-01-19T09:30:06;10.23;;;2.40;;
43088;SDS011;28709;52.030;5.652;2023-01-19T09:32:35;9.52;;;2.88;;
43088;SDS011;28709;52.030;5.652;2023-01-19T09:35:00;22.42;;;3.42;;
43088;SDS011;28709;52.030;5.652;2023-01-19T09:37:26;9.52;;;2.10;;
43088;SDS011;28709;52.030;5.652;2023-01-19T09:39:52;8.55;;;2.00;;
43088;SDS011;28709;52.030;5.652;2023-01-19T09:42:20;7.22;;;1.83;;
43088;SDS011;28709;52.030;5.652;2023-01-19T09:44:55;8.38;;;1.90;;
43088;SDS011;28709;52.030;5.652;2023-01-19T09:47:25;12.93;;;1.92;;
43088;SDS011;28709;52.030;5.652;2023-01-19T09:49:58;9.20;;;1.55;;
43088;SDS011;28709;52.030;5.652;2023-01-19T09:52:29;9.00;;;1.85;;
43088;SDS011;28709;52.030;5.652;2023-01-19T09:54:59;9.70;;;1.70;;
43088;SDS011;28709;52.030;5.652;2023-01-19T09:57:26;13.85;;;2.55;;
43088;SDS011;28709;52.030;5.652;2023-01-19T09:59:53;10.98;;;3.03;;
43088;SDS011;28709;52.030;5.652;2023-01-19T10:02:36;15.07;;;2.00;;
43088;SDS011;28709;52.030;5.652;2023-01-19T10:08:05;9.25;;;1.73;;
43088;SDS011;28709;52.030;5.652;2023-01-19T10:10:35;7.28;;;1.85;;
43088;SDS011;28709;52.030;5.652;2023-01-19T10:15:55;9.13;;;2.00;;
43088;SDS011;28709;52.030;5.652;2023-01-19T10:18:24;8.05;;;1.75;;
43088;SDS011;28709;52.030;5.652;2023-01-19T10:26:38;7.13;;;1.75;;
43088;SDS011;28709;52.030;5.652;2023-01-19T10:34:58;6.38;;;1.80;;
43088;SDS011;28709;52.030;5.652;2023-01-19T10:42:37;4.80;;;1.30;;
43088;SDS011;28709;52.030;5.652;2023-01-19T10:45:23;10.05;;;1.65;;
43088;SDS011;28709;52.030;5.652;2023-01-19T10:47:58;9.05;;;1.10;;
43088;SDS011;28709;52.030;5.652;2023-01-19T10:50:33;7.63;;;1.40;;
43088;SDS011;28709;52.030;5.652;2023-01-19T10:53:04;10.57;;;2.10;;
43088;SDS011;28709;52.030;5.652;2023-01-19T10:55:34;7.35;;;1.60;;
43088;SDS011;28709;52.030;5.652;2023-01-19T10:58:02;8.40;;;1.95;;
43088;SDS011;28709;52.030;5.652;2023-01-19T11:00:33;7.68;;;2.22;;
43088;SDS011;28709;52.030;5.652;2023-01-19T11:03:01;12.27;;;1.65;;
43088;SDS011;28709;52.030;5.652;2023-01-19T11:05:28;12.20;;;2.45;;
43088;SDS011;28709;52.030;5.652;2023-01-19T11:07:55;11.82;;;2.22;;
43088;SDS011;28709;52.030;5.652;2023-01-19T11:10:25;7.25;;;1.65;;
43088;SDS011;28709;52.030;5.652;2023-01-19T11:15:39;9.88;;;2.10;;
43088;SDS011;28709;52.030;5.652;2023-01-19T11:18:28;8.02;;;1.52;;
43088;SDS011;28709;52.030;5.652;2023-01-19T11:20:56;8.32;;;2.13;;
43088;SDS011;28709;52.030;5.652;2023-01-19T11:23:52;19.88;;;3.00;;
43088;SDS011;28709;52.030;5.652;2023-01-19T11:26:32;4.47;;;1.50;;
43088;SDS011;28709;52.030;5.652;2023-01-19T11:29:04;8.38;;;2.13;;
43088;SDS011;28709;52.030;5.652;2023-01-19T11:31:39;9.60;;;2.20;;
43088;SDS011;28709;52.030;5.652;2023-01-19T11:34:21;8.80;;;2.10;;
43088;SDS011;28709;52.030;5.652;2023-01-19T11:36:56;11.43;;;2.10;;
43088;SDS011;28709;52.030;5.652;2023-01-19T11:39:23;10.95;;;2.30;;
43088;SDS011;28709;52.030;5.652;2023-01-19T11:41:57;6.82;;;1.95;;
43088;SDS011;28709;52.030;5.652;2023-01-19T11:47:10;11.18;;;2.30;;
43088;SDS011;28709;52.030;5.652;2023-01-19T11:52:22;10.27;;;2.13;;
43088;SDS011;28709;52.030;5.652;2023-01-19T11:58:00;9.13;;;2.15;;
43088;SDS011;28709;52.030;5.652;2023-01-19T12:05:57;14.73;;;2.50;;
43088;SDS011;28709;52.030;5.652;2023-01-19T12:08:55;12.05;;;2.63;;
43088;SDS011;28709;52.030;5.652;2023-01-19T12:11:31;9.43;;;1.83;;
43088;SDS011;28709;52.030;5.652;2023-01-19T12:14:01;16.40;;;4.65;;
43088;SDS011;28709;52.030;5.652;2023-01-19T12:16:31;8.90;;;2.00;;
43088;SDS011;28709;52.030;5.652;2023-01-19T12:19:00;9.43;;;2.65;;
43088;SDS011;28709;52.030;5.652;2023-01-19T12:21:29;13.85;;;2.75;;
43088;SDS011;28709;52.030;5.652;2023-01-19T12:24:14;9.98;;;2.08;;
43088;SDS011;28709;52.030;5.652;2023-01-19T12:27:12;5.22;;;1.50;;
43088;SDS011;28709;52.030;5.652;2023-01-19T12:29:58;12.57;;;3.20;;
43088;SDS011;28709;52.030;5.652;2023-01-19T12:32:31;11.05;;;1.85;;
43088;SDS011;28709;52.030;5.652;2023-01-19T12:34:58;9.65;;;2.35;;
43088;SDS011;28709;52.030;5.652;2023-01-19T12:39:53;6.80;;;1.30;;
43088;SDS011;28709;52.030;5.652;2023-01-19T12:42:20;5.65;;;0.95;;
43088;SDS011;28709;52.030;5.652;2023-01-19T12:44:47;9.10;;;1.27;;
43088;SDS011;28709;52.030;5.652;2023-01-19T12:47:29;5.72;;;1.10;;
43088;SDS011;28709;52.030;5.652;2023-01-19T12:49:56;7.35;;;0.93;;
43088;SDS011;28709;52.030;5.652;2023-01-19T12:52:33;7.93;;;1.33;;
43088;SDS011;28709;52.030;5.652;2023-01-19T12:55:16;2.53;;;0.88;;
43088;SDS011;28709;52.030;5.652;2023-01-19T12:57:57;4.93;;;0.77;;
43088;SDS011;28709;52.030;5.652;2023-01-19T13:00:46;3.67;;;1.02;;
43088;SDS011;28709;52.030;5.652;2023-01-19T13:13:18;1.98;;;0.80;;
43088;SDS011;28709;52.030;5.652;2023-01-19T13:15:45;5.07;;;1.00;;
43088;SDS011;28709;52.030;5.652;2023-01-19T13:18:18;4.80;;;1.30;;
43088;SDS011;28709;52.030;5.652;2023-01-19T13:20:49;3.83;;;0.88;;
43088;SDS011;28709;52.030;5.652;2023-01-19T13:26:14;5.07;;;1.02;;
43088;SDS011;28709;52.030;5.652;2023-01-19T13:28:54;2.58;;;0.88;;
43088;SDS011;28709;52.030;5.652;2023-01-19T13:31:23;5.43;;;0.77;;
43088;SDS011;28709;52.030;5.652;2023-01-19T13:33:50;1.30;;;0.60;;
43088;SDS011;28709;52.030;5.652;2023-01-19T13:36:29;6.45;;;1.25;;
43088;SDS011;28709;52.030;5.652;2023-01-19T13:39:04;7.68;;;1.50;;
43088;SDS011;28709;52.030;5.652;2023-01-19T13:41:34;7.90;;;1.42;;
43088;SDS011;28709;52.030;5.652;2023-01-19T13:44:06;4.55;;;1.30;;
43088;SDS011;28709;52.030;5.652;2023-01-19T13:46:37;5.75;;;0.90;;
43088;SDS011;28709;52.030;5.652;2023-01-19T13:49:12;4.95;;;0.70;;
43088;SDS011;28709;52.030;5.652;2023-01-19T13:51:45;4.63;;;1.13;;
43088;SDS011;28709;52.030;5.652;2023-01-19T13:54:27;3.13;;;0.70;;
43088;SDS011;28709;52.030;5.652;2023-01-19T13:56:52;4.05;;;1.55;;
43088;SDS011;28709;52.030;5.652;2023-01-19T13:59:19;3.42;;;1.25;;
43088;SDS011;28709;52.030;5.652;2023-01-19T14:01:45;2.67;;;0.68;;
43088;SDS011;28709;52.030;5.652;2023-01-19T14:04:26;5.18;;;1.20;;
43088;SDS011;28709;52.030;5.652;2023-01-19T14:07:01;3.53;;;0.88;;
43088;SDS011;28709;52.030;5.652;2023-01-19T14:09:30;3.38;;;1.05;;
43088;SDS011;28709;52.030;5.652;2023-01-19T14:14:38;3.65;;;1.10;;
43088;SDS011;28709;52.030;5.652;2023-01-19T14:17:15;6.28;;;1.20;;
43088;SDS011;28709;52.030;5.652;2023-01-19T14:19:48;2.65;;;1.15;;
43088;SDS011;28709;52.030;5.652;2023-01-19T14:22:16;4.13;;;1.10;;
43088;SDS011;28709;52.030;5.652;2023-01-19T14:24:41;4.28;;;1.42;;
43088;SDS011;28709;52.030;5.652;2023-01-19T14:27:20;2.90;;;1.00;;
43088;SDS011;28709;52.030;5.652;2023-01-19T14:29:48;6.03;;;1.13;;
43088;SDS011;28709;52.030;5.652;2023-01-19T14:34:51;4.72;;;0.93;;
43088;SDS011;28709;52.030;5.652;2023-01-19T14:37:27;6.38;;;1.52;;
43088;SDS011;28709;52.030;5.652;2023-01-19T14:42:36;4.65;;;1.00;;
43088;SDS011;28709;52.030;5.652;2023-01-19T14:45:18;9.00;;;1.10;;
43088;SDS011;28709;52.030;5.652;2023-01-19T14:47:52;2.78;;;0.82;;
43088;SDS011;28709;52.030;5.652;2023-01-19T14:53:01;5.05;;;1.00;;
43088;SDS011;28709;52.030;5.652;2023-01-19T14:55:56;2.22;;;0.73;;
43088;SDS011;28709;52.030;5.652;2023-01-19T14:58:25;4.07;;;0.60;;
43088;SDS011;28709;52.030;5.652;2023-01-19T15:00:52;1.92;;;1.00;;
43088;SDS011;28709;52.030;5.652;2023-01-19T15:03:21;6.85;;;1.63;;
43088;SDS011;28709;52.030;5.652;2023-01-19T15:05:47;6.18;;;0.90;;
43088;SDS011;28709;52.030;5.652;2023-01-19T15:08:15;5.95;;;0.82;;
43088;SDS011;28709;52.030;5.652;2023-01-19T15:10:42;5.30;;;0.85;;
43088;SDS011;28709;52.030;5.652;2023-01-19T15:13:19;3.42;;;1.38;;
43088;SDS011;28709;52.030;5.652;2023-01-19T15:15:46;5.50;;;1.42;;
43088;SDS011;28709;52.030;5.652;2023-01-19T15:18:18;4.20;;;1.65;;
43088;SDS011;28709;52.030;5.652;2023-01-19T15:20:49;6.22;;;1.20;;
43088;SDS011;28709;52.030;5.652;2023-01-19T15:23:14;5.85;;;1.33;;
43088;SDS011;28709;52.030;5.652;2023-01-19T15:25:40;5.07;;;1.17;;
43088;SDS011;28709;52.030;5.652;2023-01-19T15:28:10;4.93;;;1.52;;
43088;SDS011;28709;52.030;5.652;2023-01-19T15:30:37;4.78;;;1.10;;
43088;SDS011;28709;52.030;5.652;2023-01-19T15:33:03;3.65;;;1.02;;
43088;SDS011;28709;52.030;5.652;2023-01-19T15:35:29;4.65;;;1.05;;
43088;SDS011;28709;52.030;5.652;2023-01-19T15:37:55;9.88;;;2.25;;
43088;SDS011;28709;52.030;5.652;2023-01-19T15:40:21;12.13;;;2.60;;
43088;SDS011;28709;52.030;5.652;2023-01-19T15:42:47;7.78;;;1.20;;
43088;SDS011;28709;52.030;5.652;2023-01-19T15:48:00;4.53;;;1.35;;
43088;SDS011;28709;52.030;5.652;2023-01-19T15:50:28;4.35;;;1.60;;
43088;SDS011;28709;52.030;5.652;2023-01-19T15:52:54;3.78;;;1.15;;
43088;SDS011;28709;52.030;5.652;2023-01-19T15:55:20;14.13;;;1.83;;
43088;SDS011;28709;52.030;5.652;2023-01-19T15:57:46;3.47;;;0.90;;
43088;SDS011;28709;52.030;5.652;2023-01-19T16:00:12;3.70;;;1.17;;
43088;SDS011;28709;52.030;5.652;2023-01-19T16:02:38;1.35;;;0.70;;
43088;SDS011;28709;52.030;5.652;2023-01-19T16:05:04;5.13;;;1.10;;
43088;SDS011;28709;52.030;5.652;2023-01-19T16:07:33;2.05;;;1.08;;
43088;SDS011;28709;52.030;5.652;2023-01-19T16:09:59;3.92;;;0.90;;
43088;SDS011;28709;52.030;5.652;2023-01-19T16:12:25;2.33;;;1.00;;
43088;SDS011;28709;52.030;5.652;2023-01-19T16:14:52;1.85;;;0.95;;
43088;SDS011;28709;52.030;5.652;2023-01-19T16:17:18;4.15;;;1.48;;
43088;SDS011;28709;52.030;5.652;2023-01-19T16:19:44;4.63;;;1.50;;
43088;SDS011;28709;52.030;5.652;2023-01-19T16:22:10;3.20;;;1.13;;
43088;SDS011;28709;52.030;5.652;2023-01-19T16:24:35;4.15;;;1.42;;